sensor_id;sensor_type;location;lat;lon;timestamp;P1;durP1;ratioP1;P2;durP2;ratioP2
11761;SDS011;5938;47.098;15.474;2023-04-24T00:02:12;23.57;;;10.80;;
11761;SDS011;5938;47.098;15.474;2023-04-24T00:06:17;10.20;;;8.67;;
11761;SDS011;5938;47.098;15.474;2023-04-24T00:10:20;20.60;;;9.90;;
11761;SDS011;5938;47.098;15.474;2023-04-24T00:14:24;9.40;;;7.90;;
11761;SDS011;5938;47.098;15.474;2023-04-24T00:18:29;12.43;;;8.37;;
11761;SDS011;5938;47.098;15.474;2023-04-24T00:22:32;10.60;;;8.03;;
11761;SDS011;5938;47.098;15.474;2023-04-24T00:26:36;21.53;;;10.10;;
11761;SDS011;5938;47.098;15.474;2023-04-24T00:30:40;9.53;;;7.40;;
11761;SDS011;5938;47.098;15.474;2023-04-24T00:34:45;18.53;;;9.53;;
11761;SDS011;5938;47.098;15.474;2023-04-24T00:38:48;12.00;;;8.60;;
11761;SDS011;5938;47.098;15.474;2023-04-24T00:42:51;19.00;;;9.90;;
11761;SDS011;5938;47.098;15.474;2023-04-24T00:46:55;30.77;;;10.40;;
11761;SDS011;5938;47.098;15.474;2023-04-24T00:51:02;35.80;;;12.90;;
11761;SDS011;5938;47.098;15.474;2023-04-24T00:55:06;10.60;;;8.17;;
11761;SDS011;5938;47.098;15.474;2023-04-24T00:59:10;9.73;;;8.57;;
11761;SDS011;5938;47.098;15.474;2023-04-24T01:03:15;17.40;;;9.17;;
11761;SDS011;5938;47.098;15.474;2023-04-24T01:07:21;13.47;;;9.57;;
11761;SDS011;5938;47.098;15.474;2023-04-24T01:11:24;11.40;;;8.63;;
11761;SDS011;5938;47.098;15.474;2023-04-24T01:15:28;13.37;;;9.37;;
11761;SDS011;5938;47.098;15.474;2023-04-24T01:19:31;9.47;;;8.23;;
11761;SDS011;5938;47.098;15.474;2023-04-24T01:23:37;7.57;;;6.83;;
11761;SDS011;5938;47.098;15.474;2023-04-24T01:27:40;7.83;;;7.13;;
11761;SDS011;5938;47.098;15.474;2023-04-24T01:31:44;7.80;;;7.10;;
11761;SDS011;5938;47.098;15.474;2023-04-24T01:35:48;9.60;;;7.70;;
11761;SDS011;5938;47.098;15.474;2023-04-24T01:39:53;7.80;;;7.00;;
11761;SDS011;5938;47.098;15.474;2023-04-24T01:43:56;7.63;;;6.70;;
11761;SDS011;5938;47.098;15.474;2023-04-24T01:48:00;7.50;;;6.80;;
11761;SDS011;5938;47.098;15.474;2023-04-24T01:52:03;8.67;;;7.30;;
11761;SDS011;5938;47.098;15.474;2023-04-24T01:56:11;7.87;;;7.07;;
11761;SDS011;5938;47.098;15.474;2023-04-24T02:00:14;8.47;;;7.70;;
11761;SDS011;5938;47.098;15.474;2023-04-24T02:04:18;26.30;;;8.33;;
11761;SDS011;5938;47.098;15.474;2023-04-24T02:08:21;8.37;;;7.33;;
11761;SDS011;5938;47.098;15.474;2023-04-24T02:12:26;8.13;;;7.17;;
11761;SDS011;5938;47.098;15.474;2023-04-24T02:16:29;8.07;;;7.20;;
11761;SDS011;5938;47.098;15.474;2023-04-24T02:20:33;8.40;;;7.60;;
11761;SDS011;5938;47.098;15.474;2023-04-24T02:24:37;8.50;;;7.70;;
11761;SDS011;5938;47.098;15.474;2023-04-24T02:28:41;9.50;;;8.17;;
11761;SDS011;5938;47.098;15.474;2023-04-24T02:32:45;7.23;;;6.53;;
11761;SDS011;5938;47.098;15.474;2023-04-24T02:36:48;7.60;;;6.90;;
11761;SDS011;5938;47.098;15.474;2023-04-24T02:40:51;6.97;;;6.33;;
11761;SDS011;5938;47.098;15.474;2023-04-24T02:44:56;8.50;;;6.47;;
11761;SDS011;5938;47.098;15.474;2023-04-24T02:48:59;7.20;;;6.50;;
11761;SDS011;5938;47.098;15.474;2023-04-24T02:53:03;7.03;;;6.33;;
11761;SDS011;5938;47.098;15.474;2023-04-24T02:57:06;6.83;;;6.23;;
11761;SDS011;5938;47.098;15.474;2023-04-24T03:01:11;7.70;;;6.40;;
11761;SDS011;5938;47.098;15.474;2023-04-24T03:05:14;10.30;;;6.40;;
11761;SDS011;5938;47.098;15.474;2023-04-24T03:09:17;6.90;;;6.20;;
11761;SDS011;5938;47.098;15.474;2023-04-24T03:13:20;6.73;;;6.03;;
11761;SDS011;5938;47.098;15.474;2023-04-24T03:17:25;5.60;;;5.10;;
11761;SDS011;5938;47.098;15.474;2023-04-24T03:21:28;6.33;;;5.70;;
11761;SDS011;5938;47.098;15.474;2023-04-24T03:25:32;7.50;;;6.80;;
11761;SDS011;5938;47.098;15.474;2023-04-24T03:29:35;8.70;;;7.80;;
11761;SDS011;5938;47.098;15.474;2023-04-24T03:33:39;8.10;;;7.20;;
11761;SDS011;5938;47.098;15.474;2023-04-24T03:37:43;9.30;;;7.97;;
11761;SDS011;5938;47.098;15.474;2023-04-24T03:41:46;9.50;;;7.57;;
11761;SDS011;5938;47.098;15.474;2023-04-24T03:45:50;7.93;;;7.13;;
11761;SDS011;5938;47.098;15.474;2023-04-24T03:49:55;9.03;;;7.03;;
11761;SDS011;5938;47.098;15.474;2023-04-24T03:53:59;8.30;;;7.50;;
11761;SDS011;5938;47.098;15.474;2023-04-24T03:58:02;8.40;;;7.20;;
11761;SDS011;5938;47.098;15.474;2023-04-24T04:02:06;7.53;;;6.73;;
11761;SDS011;5938;47.098;15.474;2023-04-24T04:06:11;6.70;;;6.03;;
11761;SDS011;5938;47.098;15.474;2023-04-24T04:10:14;8.07;;;6.70;;
11761;SDS011;5938;47.098;15.474;2023-04-24T04:14:18;7.77;;;7.00;;
11761;SDS011;5938;47.098;15.474;2023-04-24T04:18:22;12.27;;;8.20;;
11761;SDS011;5938;47.098;15.474;2023-04-24T04:22:26;8.07;;;7.23;;
11761;SDS011;5938;47.098;15.474;2023-04-24T04:26:30;9.40;;;8.00;;
11761;SDS011;5938;47.098;15.474;2023-04-24T04:30:34;12.97;;;8.30;;
11761;SDS011;5938;47.098;15.474;2023-04-24T04:34:39;11.63;;;8.93;;
11761;SDS011;5938;47.098;15.474;2023-04-24T04:38:44;8.87;;;8.10;;
11761;SDS011;5938;47.098;15.474;2023-04-24T04:42:48;11.03;;;9.17;;
11761;SDS011;5938;47.098;15.474;2023-04-24T04:46:54;14.27;;;10.47;;
11761;SDS011;5938;47.098;15.474;2023-04-24T04:50:57;11.43;;;9.90;;
11761;SDS011;5938;47.098;15.474;2023-04-24T04:55:02;10.83;;;8.07;;
11761;SDS011;5938;47.098;15.474;2023-04-24T04:59:06;11.17;;;9.20;;
11761;SDS011;5938;47.098;15.474;2023-04-24T05:03:09;10.67;;;8.93;;
11761;SDS011;5938;47.098;15.474;2023-04-24T05:07:22;12.63;;;10.00;;
11761;SDS011;5938;47.098;15.474;2023-04-24T05:11:26;10.10;;;9.07;;
11761;SDS011;5938;47.098;15.474;2023-04-24T05:15:31;10.60;;;9.10;;
11761;SDS011;5938;47.098;15.474;2023-04-24T05:19:34;11.70;;;9.83;;
11761;SDS011;5938;47.098;15.474;2023-04-24T05:23:41;11.37;;;9.50;;
11761;SDS011;5938;47.098;15.474;2023-04-24T05:27:46;12.10;;;10.80;;
11761;SDS011;5938;47.098;15.474;2023-04-24T05:31:49;12.93;;;11.60;;
11761;SDS011;5938;47.098;15.474;2023-04-24T05:35:53;11.00;;;9.90;;
11761;SDS011;5938;47.098;15.474;2023-04-24T05:39:57;12.73;;;11.40;;
11761;SDS011;5938;47.098;15.474;2023-04-24T05:44:02;12.93;;;10.80;;
11761;SDS011;5938;47.098;15.474;2023-04-24T05:48:06;11.80;;;10.67;;
11761;SDS011;5938;47.098;15.474;2023-04-24T05:52:09;14.90;;;11.47;;
11761;SDS011;5938;47.098;15.474;2023-04-24T05:56:12;15.10;;;11.57;;
11761;SDS011;5938;47.098;15.474;2023-04-24T06:00:17;12.33;;;11.00;;
11761;SDS011;5938;47.098;15.474;2023-04-24T06:04:21;14.37;;;12.97;;
11761;SDS011;5938;47.098;15.474;2023-04-24T06:08:28;14.23;;;12.53;;
11761;SDS011;5938;47.098;15.474;2023-04-24T06:12:32;12.50;;;11.30;;
11761;SDS011;5938;47.098;15.474;2023-04-24T06:16:36;14.30;;;12.90;;
11761;SDS011;5938;47.098;15.474;2023-04-24T06:20:40;16.37;;;13.97;;
11761;SDS011;5938;47.098;15.474;2023-04-24T06:24:43;15.57;;;13.83;;
11761;SDS011;5938;47.098;15.474;2023-04-24T06:28:48;15.57;;;13.10;;
11761;SDS011;5938;47.098;15.474;2023-04-24T06:32:53;18.63;;;14.60;;
11761;SDS011;5938;47.098;15.474;2023-04-24T06:37:06;14.13;;;12.27;;
11761;SDS011;5938;47.098;15.474;2023-04-24T06:41:09;13.37;;;12.07;;
11761;SDS011;5938;47.098;15.474;2023-04-24T06:45:13;11.30;;;10.10;;
11761;SDS011;5938;47.098;15.474;2023-04-24T06:49:17;11.37;;;10.00;;
11761;SDS011;5938;47.098;15.474;2023-04-24T06:53:21;10.07;;;9.13;;
11761;SDS011;5938;47.098;15.474;2023-04-24T06:57:24;10.27;;;9.17;;
11761;SDS011;5938;47.098;15.474;2023-04-24T07:01:28;10.20;;;8.97;;
11761;SDS011;5938;47.098;15.474;2023-04-24T07:05:33;11.90;;;8.60;;
11761;SDS011;5938;47.098;15.474;2023-04-24T07:09:37;11.30;;;9.23;;
11761;SDS011;5938;47.098;15.474;2023-04-24T07:13:40;12.67;;;11.37;;
11761;SDS011;5938;47.098;15.474;2023-04-24T07:17:44;11.90;;;10.17;;
11761;SDS011;5938;47.098;15.474;2023-04-24T07:21:48;11.07;;;9.87;;
11761;SDS011;5938;47.098;15.474;2023-04-24T07:25:52;11.10;;;10.10;;
11761;SDS011;5938;47.098;15.474;2023-04-24T07:29:55;13.90;;;12.10;;
11761;SDS011;5938;47.098;15.474;2023-04-24T07:33:58;13.10;;;11.73;;
11761;SDS011;5938;47.098;15.474;2023-04-24T07:38:03;18.60;;;11.70;;
11761;SDS011;5938;47.098;15.474;2023-04-24T07:42:07;16.03;;;14.20;;
11761;SDS011;5938;47.098;15.474;2023-04-24T07:46:10;15.80;;;14.20;;
11761;SDS011;5938;47.098;15.474;2023-04-24T07:50:13;16.70;;;12.97;;
11761;SDS011;5938;47.098;15.474;2023-04-24T07:54:18;18.97;;;13.53;;
11761;SDS011;5938;47.098;15.474;2023-04-24T07:58:21;16.63;;;14.83;;
11761;SDS011;5938;47.098;15.474;2023-04-24T08:02:25;20.90;;;15.17;;
11761;SDS011;5938;47.098;15.474;2023-04-24T08:06:29;17.20;;;14.87;;
11761;SDS011;5938;47.098;15.474;2023-04-24T08:10:35;20.33;;;14.93;;
11761;SDS011;5938;47.098;15.474;2023-04-24T08:14:38;19.23;;;15.80;;
11761;SDS011;5938;47.098;15.474;2023-04-24T08:18:41;17.70;;;14.17;;
11761;SDS011;5938;47.098;15.474;2023-04-24T08:22:45;16.90;;;14.57;;
11761;SDS011;5938;47.098;15.474;2023-04-24T08:26:51;19.37;;;15.60;;
11761;SDS011;5938;47.098;15.474;2023-04-24T08:30:58;17.93;;;14.40;;
11761;SDS011;5938;47.098;15.474;2023-04-24T08:35:01;17.00;;;14.77;;
11761;SDS011;5938;47.098;15.474;2023-04-24T08:39:04;18.77;;;14.40;;
11761;SDS011;5938;47.098;15.474;2023-04-24T08:43:09;18.40;;;14.33;;
11761;SDS011;5938;47.098;15.474;2023-04-24T08:47:13;16.20;;;14.50;;
11761;SDS011;5938;47.098;15.474;2023-04-24T08:51:18;18.60;;;14.20;;
11761;SDS011;5938;47.098;15.474;2023-04-24T08:55:22;22.13;;;14.80;;
11761;SDS011;5938;47.098;15.474;2023-04-24T08:59:28;22.87;;;15.80;;
11761;SDS011;5938;47.098;15.474;2023-04-24T09:03:32;17.70;;;14.63;;
11761;SDS011;5938;47.098;15.474;2023-04-24T09:07:37;19.77;;;14.40;;
11761;SDS011;5938;47.098;15.474;2023-04-24T09:11:44;24.10;;;15.77;;
11761;SDS011;5938;47.098;15.474;2023-04-24T09:15:49;21.13;;;14.20;;
11761;SDS011;5938;47.098;15.474;2023-04-24T09:19:52;16.70;;;13.90;;
11761;SDS011;5938;47.098;15.474;2023-04-24T09:24:02;18.27;;;13.97;;
11761;SDS011;5938;47.098;15.474;2023-04-24T09:28:07;14.47;;;12.60;;
11761;SDS011;5938;47.098;15.474;2023-04-24T09:32:22;16.47;;;14.23;;
11761;SDS011;5938;47.098;15.474;2023-04-24T09:36:27;6.90;;;6.20;;
11761;SDS011;5938;47.098;15.474;2023-04-24T09:40:35;4.80;;;4.30;;
11761;SDS011;5938;47.098;15.474;2023-04-24T09:44:41;4.57;;;3.77;;
11761;SDS011;5938;47.098;15.474;2023-04-24T09:48:46;5.50;;;4.20;;
11761;SDS011;5938;47.098;15.474;2023-04-24T09:52:55;2.57;;;2.37;;
11761;SDS011;5938;47.098;15.474;2023-04-24T09:57:00;2.73;;;2.43;;
11761;SDS011;5938;47.098;15.474;2023-04-24T10:01:04;3.13;;;2.73;;
11761;SDS011;5938;47.098;15.474;2023-04-24T10:05:08;3.67;;;2.77;;
11761;SDS011;5938;47.098;15.474;2023-04-24T10:09:14;2.03;;;1.93;;
11761;SDS011;5938;47.098;15.474;2023-04-24T10:13:17;1.70;;;1.60;;
11761;SDS011;5938;47.098;15.474;2023-04-24T10:17:20;2.90;;;2.13;;
11761;SDS011;5938;47.098;15.474;2023-04-24T10:21:26;4.53;;;2.33;;
11761;SDS011;5938;47.098;15.474;2023-04-24T10:25:30;2.47;;;2.27;;
11761;SDS011;5938;47.098;15.474;2023-04-24T10:29:34;1.70;;;1.50;;
11761;SDS011;5938;47.098;15.474;2023-04-24T10:33:42;2.47;;;2.00;;
11761;SDS011;5938;47.098;15.474;2023-04-24T10:37:50;1.60;;;1.50;;
11761;SDS011;5938;47.098;15.474;2023-04-24T10:41:56;1.63;;;1.53;;
11761;SDS011;5938;47.098;15.474;2023-04-24T10:46:00;2.00;;;1.50;;
11761;SDS011;5938;47.098;15.474;2023-04-24T10:50:06;2.80;;;1.40;;
11761;SDS011;5938;47.098;15.474;2023-04-24T10:54:27;1.50;;;1.40;;
11761;SDS011;5938;47.098;15.474;2023-04-24T10:58:41;1.80;;;1.10;;
11761;SDS011;5938;47.098;15.474;2023-04-24T11:02:46;1.73;;;1.50;;
11761;SDS011;5938;47.098;15.474;2023-04-24T11:06:54;2.13;;;1.40;;
11761;SDS011;5938;47.098;15.474;2023-04-24T11:11:00;1.80;;;1.50;;
11761;SDS011;5938;47.098;15.474;2023-04-24T11:15:06;1.93;;;1.73;;
11761;SDS011;5938;47.098;15.474;2023-04-24T11:19:18;1.10;;;1.00;;
11761;SDS011;5938;47.098;15.474;2023-04-24T11:23:25;1.53;;;1.20;;
11761;SDS011;5938;47.098;15.474;2023-04-24T11:27:31;1.37;;;1.27;;
11761;SDS011;5938;47.098;15.474;2023-04-24T11:31:40;1.63;;;1.53;;
11761;SDS011;5938;47.098;15.474;2023-04-24T11:35:50;1.60;;;1.40;;
11761;SDS011;5938;47.098;15.474;2023-04-24T11:39:54;1.00;;;0.90;;
11761;SDS011;5938;47.098;15.474;2023-04-24T11:44:01;2.83;;;1.70;;
11761;SDS011;5938;47.098;15.474;2023-04-24T11:48:05;0.87;;;0.87;;
11761;SDS011;5938;47.098;15.474;2023-04-24T11:52:09;0.83;;;0.83;;
11761;SDS011;5938;47.098;15.474;2023-04-24T11:56:13;1.10;;;1.00;;
11761;SDS011;5938;47.098;15.474;2023-04-24T12:00:23;4.97;;;1.17;;
11761;SDS011;5938;47.098;15.474;2023-04-24T12:04:37;1.40;;;0.70;;
11761;SDS011;5938;47.098;15.474;2023-04-24T12:08:42;0.70;;;0.70;;
11761;SDS011;5938;47.098;15.474;2023-04-24T12:12:49;1.30;;;0.70;;
11761;SDS011;5938;47.098;15.474;2023-04-24T12:16:54;3.60;;;0.77;;
11761;SDS011;5938;47.098;15.474;2023-04-24T12:21:17;0.57;;;0.57;;
11761;SDS011;5938;47.098;15.474;2023-04-24T12:25:24;1.00;;;0.83;;
11761;SDS011;5938;47.098;15.474;2023-04-24T12:29:28;0.80;;;0.80;;
11761;SDS011;5938;47.098;15.474;2023-04-24T12:33:33;0.63;;;0.63;;
11761;SDS011;5938;47.098;15.474;2023-04-24T12:37:38;0.50;;;0.50;;
11761;SDS011;5938;47.098;15.474;2023-04-24T12:41:50;0.50;;;0.50;;
11761;SDS011;5938;47.098;15.474;2023-04-24T12:45:59;1.03;;;0.70;;
11761;SDS011;5938;47.098;15.474;2023-04-24T12:50:04;0.60;;;0.50;;
11761;SDS011;5938;47.098;15.474;2023-04-24T12:54:08;1.27;;;1.03;;
11761;SDS011;5938;47.098;15.474;2023-04-24T12:58:13;0.50;;;0.50;;
11761;SDS011;5938;47.098;15.474;2023-04-24T13:02:16;0.93;;;0.50;;
11761;SDS011;5938;47.098;15.474;2023-04-24T13:06:21;0.47;;;0.47;;
11761;SDS011;5938;47.098;15.474;2023-04-24T13:10:24;0.50;;;0.50;;
11761;SDS011;5938;47.098;15.474;2023-04-24T13:14:28;1.27;;;0.50;;
11761;SDS011;5938;47.098;15.474;2023-04-24T13:18:31;1.83;;;0.83;;
11761;SDS011;5938;47.098;15.474;2023-04-24T13:22:37;1.10;;;0.87;;
11761;SDS011;5938;47.098;15.474;2023-04-24T13:26:40;1.10;;;0.87;;
11761;SDS011;5938;47.098;15.474;2023-04-24T13:30:44;0.87;;;0.60;;
11761;SDS011;5938;47.098;15.474;2023-04-24T13:34:47;1.10;;;0.63;;
11761;SDS011;5938;47.098;15.474;2023-04-24T13:38:52;0.73;;;0.60;;
11761;SDS011;5938;47.098;15.474;2023-04-24T13:42:55;0.73;;;0.67;;
11761;SDS011;5938;47.098;15.474;2023-04-24T13:46:58;1.03;;;0.80;;
11761;SDS011;5938;47.098;15.474;2023-04-24T13:51:02;0.70;;;0.70;;
11761;SDS011;5938;47.098;15.474;2023-04-24T13:55:07;0.90;;;0.90;;
11761;SDS011;5938;47.098;15.474;2023-04-24T13:59:11;1.13;;;0.70;;
11761;SDS011;5938;47.098;15.474;2023-04-24T14:03:15;1.53;;;0.80;;
11761;SDS011;5938;47.098;15.474;2023-04-24T14:07:19;1.03;;;0.87;;
11761;SDS011;5938;47.098;15.474;2023-04-24T14:11:24;3.00;;;1.17;;
11761;SDS011;5938;47.098;15.474;2023-04-24T14:15:29;2.20;;;0.90;;
11761;SDS011;5938;47.098;15.474;2023-04-24T14:19:32;1.93;;;0.93;;
11761;SDS011;5938;47.098;15.474;2023-04-24T14:23:36;1.30;;;1.10;;
11761;SDS011;5938;47.098;15.474;2023-04-24T14:27:40;1.40;;;1.30;;
11761;SDS011;5938;47.098;15.474;2023-04-24T14:31:43;1.03;;;0.97;;
11761;SDS011;5938;47.098;15.474;2023-04-24T14:35:47;1.80;;;1.27;;
11761;SDS011;5938;47.098;15.474;2023-04-24T14:39:51;1.30;;;1.20;;
11761;SDS011;5938;47.098;15.474;2023-04-24T14:44:15;2.87;;;1.23;;
11761;SDS011;5938;47.098;15.474;2023-04-24T14:48:18;2.20;;;1.43;;
11761;SDS011;5938;47.098;15.474;2023-04-24T14:52:22;1.70;;;1.50;;
11761;SDS011;5938;47.098;15.474;2023-04-24T14:56:25;2.10;;;1.90;;
11761;SDS011;5938;47.098;15.474;2023-04-24T15:00:30;1.27;;;1.10;;
11761;SDS011;5938;47.098;15.474;2023-04-24T15:04:33;5.50;;;1.70;;
11761;SDS011;5938;47.098;15.474;2023-04-24T15:08:37;2.33;;;1.60;;
11761;SDS011;5938;47.098;15.474;2023-04-24T15:12:40;1.53;;;1.43;;
11761;SDS011;5938;47.098;15.474;2023-04-24T15:16:46;1.30;;;1.20;;
11761;SDS011;5938;47.098;15.474;2023-04-24T15:20:50;2.37;;;1.60;;
11761;SDS011;5938;47.098;15.474;2023-04-24T15:24:53;1.07;;;0.97;;
11761;SDS011;5938;47.098;15.474;2023-04-24T15:28:57;1.90;;;1.63;;
11761;SDS011;5938;47.098;15.474;2023-04-24T15:33:02;2.13;;;1.47;;
11761;SDS011;5938;47.098;15.474;2023-04-24T15:37:05;1.23;;;1.13;;
11761;SDS011;5938;47.098;15.474;2023-04-24T15:41:09;1.47;;;1.30;;
11761;SDS011;5938;47.098;15.474;2023-04-24T15:45:12;2.60;;;1.17;;
11761;SDS011;5938;47.098;15.474;2023-04-24T15:49:18;2.83;;;1.90;;
11761;SDS011;5938;47.098;15.474;2023-04-24T15:53:21;2.70;;;1.40;;
11761;SDS011;5938;47.098;15.474;2023-04-24T15:57:24;0.83;;;0.80;;
11761;SDS011;5938;47.098;15.474;2023-04-24T16:01:29;2.60;;;0.90;;
11761;SDS011;5938;47.098;15.474;2023-04-24T16:05:38;2.53;;;0.93;;
11761;SDS011;5938;47.098;15.474;2023-04-24T16:09:42;1.67;;;0.90;;
11761;SDS011;5938;47.098;15.474;2023-04-24T16:13:46;1.30;;;1.10;;
11761;SDS011;5938;47.098;15.474;2023-04-24T16:17:50;1.30;;;1.20;;
11761;SDS011;5938;47.098;15.474;2023-04-24T16:21:55;1.33;;;1.20;;
11761;SDS011;5938;47.098;15.474;2023-04-24T16:25:59;1.33;;;1.13;;
11761;SDS011;5938;47.098;15.474;2023-04-24T16:30:04;1.47;;;1.37;;
11761;SDS011;5938;47.098;15.474;2023-04-24T16:34:08;1.07;;;0.90;;
11761;SDS011;5938;47.098;15.474;2023-04-24T16:38:14;1.17;;;1.07;;
11761;SDS011;5938;47.098;15.474;2023-04-24T16:42:17;1.50;;;1.20;;
11761;SDS011;5938;47.098;15.474;2023-04-24T16:46:21;2.20;;;1.30;;
11761;SDS011;5938;47.098;15.474;2023-04-24T16:50:25;1.30;;;1.20;;
11761;SDS011;5938;47.098;15.474;2023-04-24T16:54:33;1.93;;;0.90;;
11761;SDS011;5938;47.098;15.474;2023-04-24T16:58:37;1.40;;;1.30;;
11761;SDS011;5938;47.098;15.474;2023-04-24T17:02:43;2.23;;;2.00;;
11761;SDS011;5938;47.098;15.474;2023-04-24T17:06:51;2.07;;;1.77;;
11761;SDS011;5938;47.098;15.474;2023-04-24T17:10:57;1.97;;;1.50;;
11761;SDS011;5938;47.098;15.474;2023-04-24T17:15:00;1.80;;;1.70;;
11761;SDS011;5938;47.098;15.474;2023-04-24T17:19:05;2.20;;;1.80;;
11761;SDS011;5938;47.098;15.474;2023-04-24T17:23:23;2.20;;;1.47;;
11761;SDS011;5938;47.098;15.474;2023-04-24T17:27:29;3.20;;;1.90;;
11761;SDS011;5938;47.098;15.474;2023-04-24T17:31:34;3.07;;;2.20;;
11761;SDS011;5938;47.098;15.474;2023-04-24T17:35:39;5.60;;;3.13;;
11761;SDS011;5938;47.098;15.474;2023-04-24T17:39:43;2.37;;;1.43;;
11761;SDS011;5938;47.098;15.474;2023-04-24T17:43:50;2.53;;;2.33;;
11761;SDS011;5938;47.098;15.474;2023-04-24T17:47:55;3.27;;;2.77;;
11761;SDS011;5938;47.098;15.474;2023-04-24T17:52:01;5.27;;;2.30;;
11761;SDS011;5938;47.098;15.474;2023-04-24T17:56:05;2.53;;;2.33;;
11761;SDS011;5938;47.098;15.474;2023-04-24T18:00:12;2.40;;;2.20;;
11761;SDS011;5938;47.098;15.474;2023-04-24T18:04:17;1.60;;;1.50;;
11761;SDS011;5938;47.098;15.474;2023-04-24T18:08:21;2.93;;;2.20;;
11761;SDS011;5938;47.098;15.474;2023-04-24T18:12:28;2.60;;;2.23;;
11761;SDS011;5938;47.098;15.474;2023-04-24T18:16:34;2.67;;;1.93;;
11761;SDS011;5938;47.098;15.474;2023-04-24T18:20:39;4.27;;;2.33;;
11761;SDS011;5938;47.098;15.474;2023-04-24T18:24:42;4.30;;;2.80;;
11761;SDS011;5938;47.098;15.474;2023-04-24T18:28:48;3.17;;;2.80;;
11761;SDS011;5938;47.098;15.474;2023-04-24T18:32:56;2.70;;;2.50;;
11761;SDS011;5938;47.098;15.474;2023-04-24T18:37:01;4.00;;;3.13;;
11761;SDS011;5938;47.098;15.474;2023-04-24T18:41:05;2.70;;;2.50;;
11761;SDS011;5938;47.098;15.474;2023-04-24T18:45:10;2.93;;;2.63;;
11761;SDS011;5938;47.098;15.474;2023-04-24T18:49:23;6.47;;;3.07;;
11761;SDS011;5938;47.098;15.474;2023-04-24T18:53:55;3.47;;;2.67;;
11761;SDS011;5938;47.098;15.474;2023-04-24T18:58:09;3.20;;;3.00;;
11761;SDS011;5938;47.098;15.474;2023-04-24T19:02:16;3.40;;;3.10;;
11761;SDS011;5938;47.098;15.474;2023-04-24T19:06:23;5.00;;;3.83;;
11761;SDS011;5938;47.098;15.474;2023-04-24T19:10:31;3.10;;;2.60;;
11761;SDS011;5938;47.098;15.474;2023-04-24T19:14:37;4.70;;;3.13;;
11761;SDS011;5938;47.098;15.474;2023-04-24T19:18:45;3.80;;;3.40;;
11761;SDS011;5938;47.098;15.474;2023-04-24T19:22:55;3.83;;;3.47;;
11761;SDS011;5938;47.098;15.474;2023-04-24T19:27:02;5.40;;;3.57;;
11761;SDS011;5938;47.098;15.474;2023-04-24T19:31:17;4.13;;;3.43;;
11761;SDS011;5938;47.098;15.474;2023-04-24T19:35:28;4.17;;;3.80;;
11761;SDS011;5938;47.098;15.474;2023-04-24T19:39:38;4.60;;;4.13;;
11761;SDS011;5938;47.098;15.474;2023-04-24T19:43:50;4.73;;;3.90;;
11761;SDS011;5938;47.098;15.474;2023-04-24T19:47:59;7.67;;;4.10;;
11761;SDS011;5938;47.098;15.474;2023-04-24T19:52:12;4.20;;;3.60;;
11761;SDS011;5938;47.098;15.474;2023-04-24T19:56:24;5.00;;;3.23;;
11761;SDS011;5938;47.098;15.474;2023-04-24T20:00:34;6.33;;;3.60;;
11761;SDS011;5938;47.098;15.474;2023-04-24T20:04:44;6.77;;;3.60;;
11761;SDS011;5938;47.098;15.474;2023-04-24T20:08:54;5.10;;;3.17;;
11761;SDS011;5938;47.098;15.474;2023-04-24T20:13:03;3.90;;;3.57;;
11761;SDS011;5938;47.098;15.474;2023-04-24T20:17:09;3.77;;;3.47;;
11761;SDS011;5938;47.098;15.474;2023-04-24T20:21:13;4.63;;;3.60;;
11761;SDS011;5938;47.098;15.474;2023-04-24T20:25:17;4.20;;;3.90;;
11761;SDS011;5938;47.098;15.474;2023-04-24T20:29:23;4.83;;;3.83;;
11761;SDS011;5938;47.098;15.474;2023-04-24T20:33:27;4.40;;;4.00;;
11761;SDS011;5938;47.098;15.474;2023-04-24T20:37:31;4.00;;;3.60;;
11761;SDS011;5938;47.098;15.474;2023-04-24T20:41:35;5.83;;;5.27;;
11761;SDS011;5938;47.098;15.474;2023-04-24T20:45:40;4.47;;;4.00;;
11761;SDS011;5938;47.098;15.474;2023-04-24T20:49:45;6.23;;;4.27;;
11761;SDS011;5938;47.098;15.474;2023-04-24T20:53:49;6.33;;;4.37;;
11761;SDS011;5938;47.098;15.474;2023-04-24T20:57:52;8.17;;;5.33;;
11761;SDS011;5938;47.098;15.474;2023-04-24T21:01:57;3.97;;;3.67;;
11761;SDS011;5938;47.098;15.474;2023-04-24T21:06:01;6.27;;;4.37;;
11761;SDS011;5938;47.098;15.474;2023-04-24T21:10:05;4.97;;;4.20;;
11761;SDS011;5938;47.098;15.474;2023-04-24T21:14:09;4.53;;;4.00;;
11761;SDS011;5938;47.098;15.474;2023-04-24T21:18:14;7.33;;;4.40;;
11761;SDS011;5938;47.098;15.474;2023-04-24T21:22:17;4.73;;;4.03;;
11761;SDS011;5938;47.098;15.474;2023-04-24T21:26:21;6.00;;;4.77;;
11761;SDS011;5938;47.098;15.474;2023-04-24T21:30:24;4.43;;;3.97;;
11761;SDS011;5938;47.098;15.474;2023-04-24T21:34:29;5.10;;;4.30;;
11761;SDS011;5938;47.098;15.474;2023-04-24T21:38:32;5.43;;;4.90;;
11761;SDS011;5938;47.098;15.474;2023-04-24T21:42:36;4.70;;;4.30;;
11761;SDS011;5938;47.098;15.474;2023-04-24T21:46:39;7.13;;;4.10;;
11761;SDS011;5938;47.098;15.474;2023-04-24T21:50:45;4.67;;;4.27;;
11761;SDS011;5938;47.098;15.474;2023-04-24T21:54:48;5.40;;;4.70;;
11761;SDS011;5938;47.098;15.474;2023-04-24T21:58:51;4.97;;;3.90;;
11761;SDS011;5938;47.098;15.474;2023-04-24T22:02:55;5.10;;;4.00;;
11761;SDS011;5938;47.098;15.474;2023-04-24T22:07:00;4.33;;;3.93;;
11761;SDS011;5938;47.098;15.474;2023-04-24T22:11:03;4.33;;;3.80;;
11761;SDS011;5938;47.098;15.474;2023-04-24T22:15:20;5.23;;;3.73;;
11761;SDS011;5938;47.098;15.474;2023-04-24T22:19:23;5.67;;;4.77;;
11761;SDS011;5938;47.098;15.474;2023-04-24T22:23:30;5.77;;;4.80;;
11761;SDS011;5938;47.098;15.474;2023-04-24T22:27:33;8.10;;;4.73;;
11761;SDS011;5938;47.098;15.474;2023-04-24T22:31:37;4.60;;;3.93;;
11761;SDS011;5938;47.098;15.474;2023-04-24T22:35:40;10.53;;;4.67;;
11761;SDS011;5938;47.098;15.474;2023-04-24T22:39:45;4.60;;;4.10;;
11761;SDS011;5938;47.098;15.474;2023-04-24T22:43:48;4.33;;;4.00;;
11761;SDS011;5938;47.098;15.474;2023-04-24T22:47:52;4.83;;;3.90;;
11761;SDS011;5938;47.098;15.474;2023-04-24T22:51:56;5.80;;;3.87;;
11761;SDS011;5938;47.098;15.474;2023-04-24T22:56:01;5.43;;;3.97;;
11761;SDS011;5938;47.098;15.474;2023-04-24T23:00:05;5.20;;;4.80;;
11761;SDS011;5938;47.098;15.474;2023-04-24T23:04:11;6.93;;;4.63;;
11761;SDS011;5938;47.098;15.474;2023-04-24T23:08:15;6.23;;;4.27;;
11761;SDS011;5938;47.098;15.474;2023-04-24T23:12:19;4.20;;;3.80;;
11761;SDS011;5938;47.098;15.474;2023-04-24T23:16:23;6.10;;;5.50;;
11761;SDS011;5938;47.098;15.474;2023-04-24T23:20:27;5.33;;;4.37;;
11761;SDS011;5938;47.098;15.474;2023-04-24T23:24:30;5.83;;;5.20;;
11761;SDS011;5938;47.098;15.474;2023-04-24T23:28:35;5.73;;;4.40;;
11761;SDS011;5938;47.098;15.474;2023-04-24T23:32:40;6.63;;;4.53;;
11761;SDS011;5938;47.098;15.474;2023-04-24T23:36:44;7.70;;;5.93;;
11761;SDS011;5938;47.098;15.474;2023-04-24T23:40:48;5.23;;;4.73;;
11761;SDS011;5938;47.098;15.474;2023-04-24T23:44:53;4.87;;;4.43;;
11761;SDS011;5938;47.098;15.474;2023-04-24T23:48:57;6.70;;;4.37;;
11761;SDS011;5938;47.098;15.474;2023-04-24T23:53:00;4.50;;;4.10;;
11761;SDS011;5938;47.098;15.474;2023-04-24T23:57:03;8.33;;;5.40;;
